sensor_id;sensor_type;location;lat;lon;timestamp;temperature;humidity
45409;DHT22;31162;51.076;3.784;2023-02-01T00:01:32;7.60;99.90
45409;DHT22;31162;51.076;3.784;2023-02-01T00:03:58;7.50;99.90
45409;DHT22;31162;51.076;3.784;2023-02-01T00:06:23;7.50;99.90
45409;DHT22;31162;51.076;3.784;2023-02-01T00:08:52;7.50;99.90
45409;DHT22;31162;51.076;3.784;2023-02-01T00:11:20;7.40;99.90
45409;DHT22;31162;51.076;3.784;2023-02-01T00:13:46;7.40;99.90
45409;DHT22;31162;51.076;3.784;2023-02-01T00:16:16;7.30;99.90
45409;DHT22;31162;51.076;3.784;2023-02-01T00:18:42;7.20;99.90
45409;DHT22;31162;51.076;3.784;2023-02-01T00:21:09;7.10;99.90
45409;DHT22;31162;51.076;3.784;2023-02-01T00:23:36;7.00;99.90
45409;DHT22;31162;51.076;3.784;2023-02-01T00:26:03;7.00;99.90
45409;DHT22;31162;51.076;3.784;2023-02-01T00:28:29;6.90;99.90
45409;DHT22;31162;51.076;3.784;2023-02-01T00:30:59;6.90;99.90
45409;DHT22;31162;51.076;3.784;2023-02-01T00:33:26;6.80;99.90
45409;DHT22;31162;51.076;3.784;2023-02-01T00:36:05;6.70;99.90
45409;DHT22;31162;51.076;3.784;2023-02-01T00:38:33;6.70;99.90
45409;DHT22;31162;51.076;3.784;2023-02-01T00:41:11;6.60;99.90
45409;DHT22;31162;51.076;3.784;2023-02-01T00:43:38;6.60;99.90
45409;DHT22;31162;51.076;3.784;2023-02-01T00:46:04;6.70;99.90
45409;DHT22;31162;51.076;3.784;2023-02-01T00:48:30;6.80;99.90
45409;DHT22;31162;51.076;3.784;2023-02-01T00:51:05;6.80;99.90
45409;DHT22;31162;51.076;3.784;2023-02-01T00:53:31;6.60;99.90
45409;DHT22;31162;51.076;3.784;2023-02-01T00:55:57;6.50;99.90
45409;DHT22;31162;51.076;3.784;2023-02-01T00:58:23;6.50;99.90
45409;DHT22;31162;51.076;3.784;2023-02-01T01:03:27;6.40;99.90
45409;DHT22;31162;51.076;3.784;2023-02-01T01:05:57;6.30;99.90
45409;DHT22;31162;51.076;3.784;2023-02-01T01:08:22;6.30;99.90
45409;DHT22;31162;51.076;3.784;2023-02-01T01:10:48;6.20;99.90
45409;DHT22;31162;51.076;3.784;2023-02-01T01:13:15;6.10;99.90
45409;DHT22;31162;51.076;3.784;2023-02-01T01:15:41;6.10;99.90
45409;DHT22;31162;51.076;3.784;2023-02-01T01:18:07;6.10;99.90
45409;DHT22;31162;51.076;3.784;2023-02-01T01:20:38;6.10;99.90
45409;DHT22;31162;51.076;3.784;2023-02-01T01:23:04;6.00;99.90
45409;DHT22;31162;51.076;3.784;2023-02-01T01:25:31;6.10;99.90
45409;DHT22;31162;51.076;3.784;2023-02-01T01:27:56;6.10;99.90
45409;DHT22;31162;51.076;3.784;2023-02-01T01:30:22;6.10;99.90
45409;DHT22;31162;51.076;3.784;2023-02-01T01:32:48;6.00;99.90
45409;DHT22;31162;51.076;3.784;2023-02-01T01:35:14;6.00;99.90
45409;DHT22;31162;51.076;3.784;2023-02-01T01:37:39;6.00;99.90
45409;DHT22;31162;51.076;3.784;2023-02-01T01:40:07;6.00;99.90
45409;DHT22;31162;51.076;3.784;2023-02-01T01:42:42;6.00;99.90
45409;DHT22;31162;51.076;3.784;2023-02-01T01:47:45;6.10;99.90
45409;DHT22;31162;51.076;3.784;2023-02-01T01:50:18;6.10;99.90
45409;DHT22;31162;51.076;3.784;2023-02-01T01:52:46;6.10;99.90
45409;DHT22;31162;51.076;3.784;2023-02-01T01:55:15;6.10;99.90
45409;DHT22;31162;51.076;3.784;2023-02-01T01:57:44;6.00;99.90
45409;DHT22;31162;51.076;3.784;2023-02-01T02:00:14;5.90;99.90
45409;DHT22;31162;51.076;3.784;2023-02-01T02:02:42;5.80;99.90
45409;DHT22;31162;51.076;3.784;2023-02-01T02:05:09;5.80;99.90
45409;DHT22;31162;51.076;3.784;2023-02-01T02:07:39;5.90;99.90
45409;DHT22;31162;51.076;3.784;2023-02-01T02:10:08;5.90;99.90
45409;DHT22;31162;51.076;3.784;2023-02-01T02:12:38;6.00;99.90
45409;DHT22;31162;51.076;3.784;2023-02-01T02:15:05;5.80;99.90
45409;DHT22;31162;51.076;3.784;2023-02-01T02:29:17;5.70;99.90
45409;DHT22;31162;51.076;3.784;2023-02-01T02:38:23;5.60;99.90
45409;DHT22;31162;51.076;3.784;2023-02-01T02:41:09;5.60;99.90
45409;DHT22;31162;51.076;3.784;2023-02-01T02:43:48;5.60;99.90
45409;DHT22;31162;51.076;3.784;2023-02-01T02:46:40;5.60;99.90
45409;DHT22;31162;51.076;3.784;2023-02-01T02:49:35;5.80;99.90
45409;DHT22;31162;51.076;3.784;2023-02-01T02:52:13;5.90;99.90
45409;DHT22;31162;51.076;3.784;2023-02-01T02:55:03;6.10;99.90
45409;DHT22;31162;51.076;3.784;2023-02-01T02:57:39;6.10;99.90
45409;DHT22;31162;51.076;3.784;2023-02-01T03:00:28;6.00;99.90
45409;DHT22;31162;51.076;3.784;2023-02-01T03:03:13;5.90;99.90
45409;DHT22;31162;51.076;3.784;2023-02-01T03:05:57;5.90;99.90
45409;DHT22;31162;51.076;3.784;2023-02-01T03:08:25;6.00;99.90
45409;DHT22;31162;51.076;3.784;2023-02-01T03:13:43;6.00;99.90
45409;DHT22;31162;51.076;3.784;2023-02-01T03:16:33;6.10;99.90
45409;DHT22;31162;51.076;3.784;2023-02-01T03:19:18;6.00;99.90
45409;DHT22;31162;51.076;3.784;2023-02-01T03:22:06;6.10;99.90
45409;DHT22;31162;51.076;3.784;2023-02-01T03:24:46;6.00;99.90
45409;DHT22;31162;51.076;3.784;2023-02-01T03:27:40;6.00;99.90
45409;DHT22;31162;51.076;3.784;2023-02-01T03:30:23;6.00;99.90
45409;DHT22;31162;51.076;3.784;2023-02-01T03:32:55;5.90;99.90
45409;DHT22;31162;51.076;3.784;2023-02-01T03:38:03;6.10;99.90
45409;DHT22;31162;51.076;3.784;2023-02-01T03:40:35;6.00;99.90
45409;DHT22;31162;51.076;3.784;2023-02-01T03:43:04;6.00;99.90
45409;DHT22;31162;51.076;3.784;2023-02-01T03:45:40;5.90;99.90
45409;DHT22;31162;51.076;3.784;2023-02-01T03:48:08;6.00;99.90
45409;DHT22;31162;51.076;3.784;2023-02-01T03:50:36;5.90;99.90
45409;DHT22;31162;51.076;3.784;2023-02-01T03:53:12;5.90;99.90
45409;DHT22;31162;51.076;3.784;2023-02-01T03:55:41;6.00;99.90
45409;DHT22;31162;51.076;3.784;2023-02-01T03:58:14;6.00;99.90
45409;DHT22;31162;51.076;3.784;2023-02-01T04:00:40;6.10;99.90
45409;DHT22;31162;51.076;3.784;2023-02-01T04:03:07;6.00;99.90
45409;DHT22;31162;51.076;3.784;2023-02-01T04:05:33;6.00;99.90
45409;DHT22;31162;51.076;3.784;2023-02-01T04:07:59;6.00;99.90
45409;DHT22;31162;51.076;3.784;2023-02-01T04:10:25;5.90;99.90
45409;DHT22;31162;51.076;3.784;2023-02-01T04:12:51;5.80;99.90
45409;DHT22;31162;51.076;3.784;2023-02-01T04:15:16;5.90;99.90
45409;DHT22;31162;51.076;3.784;2023-02-01T04:17:42;5.90;99.90
45409;DHT22;31162;51.076;3.784;2023-02-01T04:20:08;6.00;99.90
45409;DHT22;31162;51.076;3.784;2023-02-01T04:22:34;6.00;99.90
45409;DHT22;31162;51.076;3.784;2023-02-01T04:25:00;5.90;99.90
45409;DHT22;31162;51.076;3.784;2023-02-01T04:27:26;5.80;99.90
45409;DHT22;31162;51.076;3.784;2023-02-01T04:29:52;5.80;99.90
45409;DHT22;31162;51.076;3.784;2023-02-01T04:32:18;5.80;99.90
45409;DHT22;31162;51.076;3.784;2023-02-01T04:34:45;5.80;99.90
45409;DHT22;31162;51.076;3.784;2023-02-01T04:37:11;5.90;99.90
45409;DHT22;31162;51.076;3.784;2023-02-01T04:39:37;5.80;99.90
45409;DHT22;31162;51.076;3.784;2023-02-01T04:42:03;5.90;99.90
45409;DHT22;31162;51.076;3.784;2023-02-01T04:44:28;5.80;99.90
45409;DHT22;31162;51.076;3.784;2023-02-01T04:46:54;5.60;99.90
45409;DHT22;31162;51.076;3.784;2023-02-01T04:49:20;5.70;99.90
45409;DHT22;31162;51.076;3.784;2023-02-01T04:51:47;5.60;99.90
45409;DHT22;31162;51.076;3.784;2023-02-01T04:54:13;5.60;99.90
45409;DHT22;31162;51.076;3.784;2023-02-01T04:56:39;5.70;99.90
45409;DHT22;31162;51.076;3.784;2023-02-01T04:59:05;5.70;99.90
45409;DHT22;31162;51.076;3.784;2023-02-01T05:01:31;5.70;99.90
45409;DHT22;31162;51.076;3.784;2023-02-01T05:03:56;5.70;99.90
45409;DHT22;31162;51.076;3.784;2023-02-01T05:06:22;5.70;99.90
45409;DHT22;31162;51.076;3.784;2023-02-01T05:08:48;5.50;99.90
45409;DHT22;31162;51.076;3.784;2023-02-01T05:11:14;5.60;99.90
45409;DHT22;31162;51.076;3.784;2023-02-01T05:13:59;5.50;99.90
45409;DHT22;31162;51.076;3.784;2023-02-01T05:16:25;5.50;99.90
45409;DHT22;31162;51.076;3.784;2023-02-01T05:18:51;5.50;99.90
45409;DHT22;31162;51.076;3.784;2023-02-01T05:21:17;5.60;99.90
45409;DHT22;31162;51.076;3.784;2023-02-01T05:23:43;5.60;99.90
45409;DHT22;31162;51.076;3.784;2023-02-01T05:26:27;5.70;99.90
45409;DHT22;31162;51.076;3.784;2023-02-01T05:28:52;5.70;99.90
45409;DHT22;31162;51.076;3.784;2023-02-01T05:31:18;5.50;99.90
45409;DHT22;31162;51.076;3.784;2023-02-01T05:33:44;5.50;99.90
45409;DHT22;31162;51.076;3.784;2023-02-01T05:36:10;5.60;99.90
45409;DHT22;31162;51.076;3.784;2023-02-01T05:38:35;5.50;99.90
45409;DHT22;31162;51.076;3.784;2023-02-01T05:41:01;5.60;99.90
45409;DHT22;31162;51.076;3.784;2023-02-01T05:43:27;5.50;99.90
45409;DHT22;31162;51.076;3.784;2023-02-01T05:45:53;5.60;99.90
45409;DHT22;31162;51.076;3.784;2023-02-01T05:48:18;5.40;99.90
45409;DHT22;31162;51.076;3.784;2023-02-01T05:50:44;5.50;99.90
45409;DHT22;31162;51.076;3.784;2023-02-01T05:53:10;5.50;99.90
45409;DHT22;31162;51.076;3.784;2023-02-01T05:55:37;5.50;99.90
45409;DHT22;31162;51.076;3.784;2023-02-01T05:58:03;5.60;99.90
45409;DHT22;31162;51.076;3.784;2023-02-01T06:00:29;5.50;99.90
45409;DHT22;31162;51.076;3.784;2023-02-01T06:02:55;5.40;99.90
45409;DHT22;31162;51.076;3.784;2023-02-01T06:05:21;5.40;99.90
45409;DHT22;31162;51.076;3.784;2023-02-01T06:07:46;5.40;99.90
45409;DHT22;31162;51.076;3.784;2023-02-01T06:10:12;5.40;99.90
45409;DHT22;31162;51.076;3.784;2023-02-01T06:12:38;5.40;99.90
45409;DHT22;31162;51.076;3.784;2023-02-01T06:15:04;5.50;99.90
45409;DHT22;31162;51.076;3.784;2023-02-01T06:17:30;5.50;99.90
45409;DHT22;31162;51.076;3.784;2023-02-01T06:19:56;5.50;99.90
45409;DHT22;31162;51.076;3.784;2023-02-01T06:22:21;5.50;99.90
45409;DHT22;31162;51.076;3.784;2023-02-01T06:24:48;5.60;99.90
45409;DHT22;31162;51.076;3.784;2023-02-01T06:27:14;5.60;99.90
45409;DHT22;31162;51.076;3.784;2023-02-01T06:29:40;5.50;99.90
45409;DHT22;31162;51.076;3.784;2023-02-01T06:32:06;5.60;99.90
45409;DHT22;31162;51.076;3.784;2023-02-01T06:34:32;5.70;99.90
45409;DHT22;31162;51.076;3.784;2023-02-01T06:36:57;5.60;99.90
45409;DHT22;31162;51.076;3.784;2023-02-01T06:39:23;5.60;99.90
45409;DHT22;31162;51.076;3.784;2023-02-01T06:41:49;5.50;99.90
45409;DHT22;31162;51.076;3.784;2023-02-01T06:44:15;5.50;99.90
45409;DHT22;31162;51.076;3.784;2023-02-01T06:46:42;5.50;99.90
45409;DHT22;31162;51.076;3.784;2023-02-01T06:49:07;5.50;99.90
45409;DHT22;31162;51.076;3.784;2023-02-01T06:51:34;5.50;99.90
45409;DHT22;31162;51.076;3.784;2023-02-01T06:54:00;5.50;99.90
45409;DHT22;31162;51.076;3.784;2023-02-01T06:56:26;5.50;99.90
45409;DHT22;31162;51.076;3.784;2023-02-01T06:58:52;5.50;99.90
45409;DHT22;31162;51.076;3.784;2023-02-01T07:01:18;5.40;99.90
45409;DHT22;31162;51.076;3.784;2023-02-01T07:03:51;5.50;99.90
45409;DHT22;31162;51.076;3.784;2023-02-01T07:06:17;5.50;99.90
45409;DHT22;31162;51.076;3.784;2023-02-01T07:08:43;5.40;99.90
45409;DHT22;31162;51.076;3.784;2023-02-01T07:11:11;5.60;99.90
45409;DHT22;31162;51.076;3.784;2023-02-01T07:13:37;5.70;99.90
45409;DHT22;31162;51.076;3.784;2023-02-01T07:16:06;5.70;99.90
45409;DHT22;31162;51.076;3.784;2023-02-01T07:18:32;5.70;99.90
45409;DHT22;31162;51.076;3.784;2023-02-01T07:20:59;5.60;99.90
45409;DHT22;31162;51.076;3.784;2023-02-01T07:23:25;5.60;99.90
45409;DHT22;31162;51.076;3.784;2023-02-01T07:25:59;5.60;99.90
45409;DHT22;31162;51.076;3.784;2023-02-01T07:28:26;5.60;99.90
45409;DHT22;31162;51.076;3.784;2023-02-01T07:30:53;5.70;99.90
45409;DHT22;31162;51.076;3.784;2023-02-01T07:33:23;5.70;99.90
45409;DHT22;31162;51.076;3.784;2023-02-01T07:35:50;5.70;99.90
45409;DHT22;31162;51.076;3.784;2023-02-01T07:38:16;5.80;99.90
45409;DHT22;31162;51.076;3.784;2023-02-01T07:40:42;5.90;99.90
45409;DHT22;31162;51.076;3.784;2023-02-01T07:43:08;5.90;99.90
45409;DHT22;31162;51.076;3.784;2023-02-01T07:45:35;6.00;99.90
45409;DHT22;31162;51.076;3.784;2023-02-01T07:48:01;6.00;99.90
45409;DHT22;31162;51.076;3.784;2023-02-01T07:50:27;6.00;99.90
45409;DHT22;31162;51.076;3.784;2023-02-01T07:52:53;6.10;99.90
45409;DHT22;31162;51.076;3.784;2023-02-01T07:55:19;6.20;99.90
45409;DHT22;31162;51.076;3.784;2023-02-01T07:57:45;6.30;99.90
45409;DHT22;31162;51.076;3.784;2023-02-01T08:00:11;6.40;99.90
45409;DHT22;31162;51.076;3.784;2023-02-01T08:02:59;6.40;99.90
45409;DHT22;31162;51.076;3.784;2023-02-01T08:05:25;6.50;99.90
45409;DHT22;31162;51.076;3.784;2023-02-01T08:07:51;6.50;99.90
45409;DHT22;31162;51.076;3.784;2023-02-01T08:10:17;6.50;99.90
45409;DHT22;31162;51.076;3.784;2023-02-01T08:12:43;6.50;99.90
45409;DHT22;31162;51.076;3.784;2023-02-01T08:15:14;6.60;99.90
45409;DHT22;31162;51.076;3.784;2023-02-01T08:17:40;6.70;99.90
45409;DHT22;31162;51.076;3.784;2023-02-01T08:20:11;6.70;99.90
45409;DHT22;31162;51.076;3.784;2023-02-01T08:22:38;6.70;99.90
45409;DHT22;31162;51.076;3.784;2023-02-01T08:25:04;6.80;99.90
45409;DHT22;31162;51.076;3.784;2023-02-01T08:27:33;6.80;99.90
45409;DHT22;31162;51.076;3.784;2023-02-01T08:29:59;7.00;99.90
45409;DHT22;31162;51.076;3.784;2023-02-01T08:32:25;7.20;99.90
45409;DHT22;31162;51.076;3.784;2023-02-01T08:34:51;7.30;99.90
45409;DHT22;31162;51.076;3.784;2023-02-01T08:37:16;7.40;99.90
45409;DHT22;31162;51.076;3.784;2023-02-01T08:39:42;7.40;99.90
45409;DHT22;31162;51.076;3.784;2023-02-01T08:42:10;7.30;99.90
45409;DHT22;31162;51.076;3.784;2023-02-01T08:44:54;7.30;99.90
45409;DHT22;31162;51.076;3.784;2023-02-01T08:47:20;7.40;99.90
45409;DHT22;31162;51.076;3.784;2023-02-01T08:49:46;7.50;99.90
45409;DHT22;31162;51.076;3.784;2023-02-01T08:52:11;7.70;99.90
45409;DHT22;31162;51.076;3.784;2023-02-01T08:54:37;7.80;99.90
45409;DHT22;31162;51.076;3.784;2023-02-01T08:57:04;8.00;99.90
45409;DHT22;31162;51.076;3.784;2023-02-01T08:59:30;8.20;99.90
45409;DHT22;31162;51.076;3.784;2023-02-01T09:01:56;8.40;99.90
45409;DHT22;31162;51.076;3.784;2023-02-01T09:04:21;8.70;99.90
45409;DHT22;31162;51.076;3.784;2023-02-01T09:06:47;8.90;99.90
45409;DHT22;31162;51.076;3.784;2023-02-01T09:09:13;9.10;99.90
45409;DHT22;31162;51.076;3.784;2023-02-01T09:11:38;9.20;99.90
45409;DHT22;31162;51.076;3.784;2023-02-01T09:14:04;9.30;99.90
45409;DHT22;31162;51.076;3.784;2023-02-01T09:16:30;9.10;99.90
45409;DHT22;31162;51.076;3.784;2023-02-01T09:18:55;9.00;99.90
45409;DHT22;31162;51.076;3.784;2023-02-01T09:21:21;9.00;99.90
45409;DHT22;31162;51.076;3.784;2023-02-01T09:23:46;9.00;99.90
45409;DHT22;31162;51.076;3.784;2023-02-01T09:26:14;9.10;99.90
45409;DHT22;31162;51.076;3.784;2023-02-01T09:28:40;9.20;99.90
45409;DHT22;31162;51.076;3.784;2023-02-01T09:31:05;9.30;99.90
45409;DHT22;31162;51.076;3.784;2023-02-01T09:33:31;9.50;99.90
45409;DHT22;31162;51.076;3.784;2023-02-01T09:36:02;9.50;99.90
45409;DHT22;31162;51.076;3.784;2023-02-01T09:38:29;9.70;99.90
45409;DHT22;31162;51.076;3.784;2023-02-01T09:40:55;9.70;99.90
45409;DHT22;31162;51.076;3.784;2023-02-01T09:46:28;9.70;99.90
45409;DHT22;31162;51.076;3.784;2023-02-01T09:48:56;9.40;99.90
45409;DHT22;31162;51.076;3.784;2023-02-01T09:51:27;9.20;99.90
45409;DHT22;31162;51.076;3.784;2023-02-01T09:54:20;9.30;99.90
45409;DHT22;31162;51.076;3.784;2023-02-01T09:56:54;9.40;99.90
45409;DHT22;31162;51.076;3.784;2023-02-01T10:02:04;10.00;99.90
45409;DHT22;31162;51.076;3.784;2023-02-01T10:04:30;10.10;99.90
45409;DHT22;31162;51.076;3.784;2023-02-01T10:09:56;10.10;99.90
45409;DHT22;31162;51.076;3.784;2023-02-01T10:21:41;10.40;99.90
45409;DHT22;31162;51.076;3.784;2023-02-01T10:24:36;10.80;99.90
45409;DHT22;31162;51.076;3.784;2023-02-01T10:27:14;11.10;99.90
45409;DHT22;31162;51.076;3.784;2023-02-01T10:29:49;11.10;99.90
45409;DHT22;31162;51.076;3.784;2023-02-01T10:32:21;11.00;99.90
45409;DHT22;31162;51.076;3.784;2023-02-01T10:35:02;11.50;99.90
45409;DHT22;31162;51.076;3.784;2023-02-01T10:37:30;12.20;99.90
45409;DHT22;31162;51.076;3.784;2023-02-01T10:39:59;12.80;99.90
45409;DHT22;31162;51.076;3.784;2023-02-01T10:42:27;12.70;99.90
45409;DHT22;31162;51.076;3.784;2023-02-01T10:44:56;12.30;99.90
45409;DHT22;31162;51.076;3.784;2023-02-01T10:47:24;12.20;99.90
45409;DHT22;31162;51.076;3.784;2023-02-01T10:50:05;12.10;99.90
45409;DHT22;31162;51.076;3.784;2023-02-01T10:52:50;11.80;99.90
45409;DHT22;31162;51.076;3.784;2023-02-01T10:58:14;11.80;99.90
45409;DHT22;31162;51.076;3.784;2023-02-01T11:01:06;12.30;99.90
45409;DHT22;31162;51.076;3.784;2023-02-01T11:06:33;13.60;99.90
45409;DHT22;31162;51.076;3.784;2023-02-01T11:09:10;13.90;99.90
45409;DHT22;31162;51.076;3.784;2023-02-01T11:11:57;13.80;99.90
45409;DHT22;31162;51.076;3.784;2023-02-01T11:14:38;13.50;99.90
45409;DHT22;31162;51.076;3.784;2023-02-01T11:17:35;13.80;99.90
45409;DHT22;31162;51.076;3.784;2023-02-01T11:20:17;14.80;99.90
45409;DHT22;31162;51.076;3.784;2023-02-01T11:22:53;14.90;99.90
45409;DHT22;31162;51.076;3.784;2023-02-01T11:25:19;14.50;99.90
45409;DHT22;31162;51.076;3.784;2023-02-01T11:27:47;14.20;99.90
45409;DHT22;31162;51.076;3.784;2023-02-01T11:32:52;13.80;99.90
45409;DHT22;31162;51.076;3.784;2023-02-01T11:35:20;14.10;99.90
45409;DHT22;31162;51.076;3.784;2023-02-01T11:37:54;14.20;99.90
45409;DHT22;31162;51.076;3.784;2023-02-01T11:42:58;14.80;99.90
45409;DHT22;31162;51.076;3.784;2023-02-01T11:45:29;15.40;99.90
45409;DHT22;31162;51.076;3.784;2023-02-01T11:47:57;15.50;99.90
45409;DHT22;31162;51.076;3.784;2023-02-01T11:51:08;15.20;99.90
45409;DHT22;31162;51.076;3.784;2023-02-01T11:56:36;15.10;99.90
45409;DHT22;31162;51.076;3.784;2023-02-01T12:12:51;15.90;99.90
45409;DHT22;31162;51.076;3.784;2023-02-01T12:21:00;16.70;99.90
45409;DHT22;31162;51.076;3.784;2023-02-01T12:35:13;15.30;99.90
45409;DHT22;31162;51.076;3.784;2023-02-01T12:38:12;14.60;99.90
45409;DHT22;31162;51.076;3.784;2023-02-01T12:41:13;14.20;99.90
45409;DHT22;31162;51.076;3.784;2023-02-01T12:46:27;14.20;99.90
45409;DHT22;31162;51.076;3.784;2023-02-01T12:49:00;14.40;99.90
45409;DHT22;31162;51.076;3.784;2023-02-01T12:51:33;14.30;99.90
45409;DHT22;31162;51.076;3.784;2023-02-01T12:59:03;13.70;99.90
45409;DHT22;31162;51.076;3.784;2023-02-01T13:01:41;13.50;99.90
45409;DHT22;31162;51.076;3.784;2023-02-01T13:04:55;13.10;99.90
45409;DHT22;31162;51.076;3.784;2023-02-01T13:07:14;13.20;99.90
45409;DHT22;31162;51.076;3.784;2023-02-01T13:09:49;13.00;99.90
45409;DHT22;31162;51.076;3.784;2023-02-01T13:12:24;13.10;99.90
45409;DHT22;31162;51.076;3.784;2023-02-01T13:14:59;13.10;99.90
45409;DHT22;31162;51.076;3.784;2023-02-01T13:17:29;13.10;99.90
45409;DHT22;31162;51.076;3.784;2023-02-01T13:20:04;13.20;99.90
45409;DHT22;31162;51.076;3.784;2023-02-01T13:23:13;13.30;99.90
45409;DHT22;31162;51.076;3.784;2023-02-01T13:25:40;13.30;99.90
45409;DHT22;31162;51.076;3.784;2023-02-01T13:28:49;13.20;99.90
45409;DHT22;31162;51.076;3.784;2023-02-01T13:37:04;12.70;99.90
45409;DHT22;31162;51.076;3.784;2023-02-01T13:39:41;12.70;99.90
45409;DHT22;31162;51.076;3.784;2023-02-01T13:44:52;12.30;99.90
45409;DHT22;31162;51.076;3.784;2023-02-01T13:49:53;12.20;99.90
45409;DHT22;31162;51.076;3.784;2023-02-01T13:52:44;12.20;99.90
45409;DHT22;31162;51.076;3.784;2023-02-01T13:57:46;12.70;99.90
45409;DHT22;31162;51.076;3.784;2023-02-01T14:13:36;12.20;99.90
45409;DHT22;31162;51.076;3.784;2023-02-01T14:21:31;12.00;99.90
45409;DHT22;31162;51.076;3.784;2023-02-01T14:24:02;12.00;99.90
45409;DHT22;31162;51.076;3.784;2023-02-01T14:31:53;12.00;99.90
45409;DHT22;31162;51.076;3.784;2023-02-01T14:37:00;12.00;99.90
45409;DHT22;31162;51.076;3.784;2023-02-01T14:55:47;11.20;99.90
45409;DHT22;31162;51.076;3.784;2023-02-01T14:58:41;11.00;99.90
45409;DHT22;31162;51.076;3.784;2023-02-01T15:01:28;11.00;99.90
45409;DHT22;31162;51.076;3.784;2023-02-01T15:04:14;11.00;99.90
45409;DHT22;31162;51.076;3.784;2023-02-01T15:06:50;11.10;99.90
45409;DHT22;31162;51.076;3.784;2023-02-01T15:09:28;11.00;99.90
45409;DHT22;31162;51.076;3.784;2023-02-01T15:14:41;11.00;99.90
45409;DHT22;31162;51.076;3.784;2023-02-01T15:17:23;11.10;99.90
45409;DHT22;31162;51.076;3.784;2023-02-01T15:19:57;11.10;99.90
45409;DHT22;31162;51.076;3.784;2023-02-01T15:22:24;11.10;99.90
45409;DHT22;31162;51.076;3.784;2023-02-01T15:24:57;11.10;99.90
45409;DHT22;31162;51.076;3.784;2023-02-01T15:27:25;11.00;99.90
45409;DHT22;31162;51.076;3.784;2023-02-01T15:29:51;10.90;99.90
45409;DHT22;31162;51.076;3.784;2023-02-01T15:32:35;10.80;99.90
45409;DHT22;31162;51.076;3.784;2023-02-01T15:35:04;10.80;99.90
45409;DHT22;31162;51.076;3.784;2023-02-01T15:37:31;10.80;99.90
45409;DHT22;31162;51.076;3.784;2023-02-01T15:42:36;10.70;99.90
45409;DHT22;31162;51.076;3.784;2023-02-01T15:45:16;10.50;99.90
45409;DHT22;31162;51.076;3.784;2023-02-01T15:47:50;10.40;99.90
45409;DHT22;31162;51.076;3.784;2023-02-01T15:50:20;10.40;99.90
45409;DHT22;31162;51.076;3.784;2023-02-01T15:52:50;10.30;99.90
45409;DHT22;31162;51.076;3.784;2023-02-01T15:55:40;10.40;99.90
45409;DHT22;31162;51.076;3.784;2023-02-01T15:58:08;10.40;99.90
45409;DHT22;31162;51.076;3.784;2023-02-01T16:00:43;10.40;99.90
45409;DHT22;31162;51.076;3.784;2023-02-01T16:03:43;10.40;99.90
45409;DHT22;31162;51.076;3.784;2023-02-01T16:06:10;10.40;99.90
45409;DHT22;31162;51.076;3.784;2023-02-01T16:08:37;10.40;99.90
45409;DHT22;31162;51.076;3.784;2023-02-01T16:13:32;10.40;99.90
45409;DHT22;31162;51.076;3.784;2023-02-01T16:15:58;10.30;99.90
45409;DHT22;31162;51.076;3.784;2023-02-01T16:18:24;10.30;99.90
45409;DHT22;31162;51.076;3.784;2023-02-01T16:20:49;10.20;99.90
45409;DHT22;31162;51.076;3.784;2023-02-01T16:23:15;10.10;99.90
45409;DHT22;31162;51.076;3.784;2023-02-01T16:25:41;10.00;99.90
45409;DHT22;31162;51.076;3.784;2023-02-01T16:28:07;9.90;99.90
45409;DHT22;31162;51.076;3.784;2023-02-01T16:30:34;9.90;99.90
45409;DHT22;31162;51.076;3.784;2023-02-01T16:33:00;9.80;99.90
45409;DHT22;31162;51.076;3.784;2023-02-01T16:35:33;9.80;99.90
45409;DHT22;31162;51.076;3.784;2023-02-01T16:38:16;9.80;99.90
45409;DHT22;31162;51.076;3.784;2023-02-01T16:40:45;9.80;99.90
45409;DHT22;31162;51.076;3.784;2023-02-01T16:43:15;9.70;99.90
45409;DHT22;31162;51.076;3.784;2023-02-01T16:45:41;9.70;99.90
45409;DHT22;31162;51.076;3.784;2023-02-01T16:48:15;9.70;99.90
45409;DHT22;31162;51.076;3.784;2023-02-01T16:50:43;9.70;99.90
45409;DHT22;31162;51.076;3.784;2023-02-01T16:53:12;9.60;99.90
45409;DHT22;31162;51.076;3.784;2023-02-01T16:55:39;9.70;99.90
45409;DHT22;31162;51.076;3.784;2023-02-01T16:58:05;9.70;99.90
45409;DHT22;31162;51.076;3.784;2023-02-01T17:00:30;9.70;99.90
45409;DHT22;31162;51.076;3.784;2023-02-01T17:02:58;9.70;99.90
45409;DHT22;31162;51.076;3.784;2023-02-01T17:05:25;9.70;99.90
45409;DHT22;31162;51.076;3.784;2023-02-01T17:07:51;9.70;99.90
45409;DHT22;31162;51.076;3.784;2023-02-01T17:10:25;9.70;99.90
45409;DHT22;31162;51.076;3.784;2023-02-01T17:12:52;9.70;99.90
45409;DHT22;31162;51.076;3.784;2023-02-01T17:15:18;9.80;99.90
45409;DHT22;31162;51.076;3.784;2023-02-01T17:17:43;9.80;99.90
45409;DHT22;31162;51.076;3.784;2023-02-01T17:20:19;10.00;99.90
45409;DHT22;31162;51.076;3.784;2023-02-01T17:22:46;10.00;99.90
45409;DHT22;31162;51.076;3.784;2023-02-01T17:25:20;10.00;99.90
45409;DHT22;31162;51.076;3.784;2023-02-01T17:27:47;10.00;99.90
45409;DHT22;31162;51.076;3.784;2023-02-01T17:30:14;10.00;99.90
45409;DHT22;31162;51.076;3.784;2023-02-01T17:32:40;10.00;99.90
45409;DHT22;31162;51.076;3.784;2023-02-01T17:35:15;9.90;99.90
45409;DHT22;31162;51.076;3.784;2023-02-01T17:37:42;9.80;99.90
45409;DHT22;31162;51.076;3.784;2023-02-01T17:40:08;9.80;99.90
45409;DHT22;31162;51.076;3.784;2023-02-01T17:42:35;9.80;99.90
45409;DHT22;31162;51.076;3.784;2023-02-01T17:45:15;9.80;99.90
45409;DHT22;31162;51.076;3.784;2023-02-01T17:47:42;9.80;99.90
45409;DHT22;31162;51.076;3.784;2023-02-01T17:50:08;9.80;99.90
45409;DHT22;31162;51.076;3.784;2023-02-01T17:52:34;9.80;99.90
45409;DHT22;31162;51.076;3.784;2023-02-01T17:55:00;9.80;99.90
45409;DHT22;31162;51.076;3.784;2023-02-01T17:57:28;9.90;99.90
45409;DHT22;31162;51.076;3.784;2023-02-01T17:59:53;9.80;99.90
45409;DHT22;31162;51.076;3.784;2023-02-01T18:02:22;9.90;99.90
45409;DHT22;31162;51.076;3.784;2023-02-01T18:04:48;9.90;99.90
45409;DHT22;31162;51.076;3.784;2023-02-01T18:07:14;9.80;99.90
45409;DHT22;31162;51.076;3.784;2023-02-01T18:09:40;9.90;99.90
45409;DHT22;31162;51.076;3.784;2023-02-01T18:12:21;9.90;99.90
45409;DHT22;31162;51.076;3.784;2023-02-01T18:14:49;9.90;99.90
45409;DHT22;31162;51.076;3.784;2023-02-01T18:17:15;10.00;99.90
45409;DHT22;31162;51.076;3.784;2023-02-01T18:19:41;9.90;99.90
45409;DHT22;31162;51.076;3.784;2023-02-01T18:22:14;9.90;99.90
45409;DHT22;31162;51.076;3.784;2023-02-01T18:24:40;9.90;99.90
45409;DHT22;31162;51.076;3.784;2023-02-01T18:27:06;9.80;99.90
45409;DHT22;31162;51.076;3.784;2023-02-01T18:29:33;9.90;99.90
45409;DHT22;31162;51.076;3.784;2023-02-01T18:31:58;10.00;99.90
45409;DHT22;31162;51.076;3.784;2023-02-01T18:34:24;10.00;99.90
45409;DHT22;31162;51.076;3.784;2023-02-01T18:36:51;10.00;99.90
45409;DHT22;31162;51.076;3.784;2023-02-01T18:39:18;10.00;99.90
45409;DHT22;31162;51.076;3.784;2023-02-01T18:41:48;9.90;99.90
45409;DHT22;31162;51.076;3.784;2023-02-01T18:44:16;10.00;99.90
45409;DHT22;31162;51.076;3.784;2023-02-01T18:46:42;10.00;99.90